Terminal Aerodrome Forecast
Issued by NWS

Home | Current Version | Previous Version | Text Only | Print | Product List | Glossary On
Versions: 1 2 3 4 5 6 7 8 9 10 11 12 13
000
FTUS44 KLZK 041736
TAFLLQ
TAF
KLLQ 041736Z 0418/0518 16005KT P6SM SCT050 BKN250
      TEMPO 0418/0422 BKN050
     FM050000 VRB03KT P6SM SCT100 BKN250
     FM051200 VRB04KT P6SM BKN250=

USA.gov is the U.S. government's official web portal to all federal, state and local government web resources and services.